sensor_id;sensor_type;location;lat;lon;timestamp;P1;durP1;ratioP1;P2;durP2;ratioP2
2622;SDS011;1321;48.690;9.022;2023-03-01T00:01:17;13.07;;;11.70;;
2622;SDS011;1321;48.690;9.022;2023-03-01T00:03:47;13.18;;;11.88;;
2622;SDS011;1321;48.690;9.022;2023-03-01T00:06:17;12.63;;;11.32;;
2622;SDS011;1321;48.690;9.022;2023-03-01T00:08:46;13.57;;;11.68;;
2622;SDS011;1321;48.690;9.022;2023-03-01T00:11:15;14.10;;;11.38;;
2622;SDS011;1321;48.690;9.022;2023-03-01T00:13:45;14.30;;;11.77;;
2622;SDS011;1321;48.690;9.022;2023-03-01T00:16:15;15.05;;;11.82;;
2622;SDS011;1321;48.690;9.022;2023-03-01T00:18:45;16.13;;;12.68;;
2622;SDS011;1321;48.690;9.022;2023-03-01T00:21:13;13.80;;;11.18;;
2622;SDS011;1321;48.690;9.022;2023-03-01T00:23:43;12.45;;;11.15;;
2622;SDS011;1321;48.690;9.022;2023-03-01T00:26:12;14.25;;;11.43;;
2622;SDS011;1321;48.690;9.022;2023-03-01T00:28:41;15.88;;;11.57;;
2622;SDS011;1321;48.690;9.022;2023-03-01T00:31:11;12.45;;;11.15;;
2622;SDS011;1321;48.690;9.022;2023-03-01T00:33:40;13.88;;;12.50;;
2622;SDS011;1321;48.690;9.022;2023-03-01T00:36:10;13.60;;;10.70;;
2622;SDS011;1321;48.690;9.022;2023-03-01T00:38:40;13.38;;;11.50;;
2622;SDS011;1321;48.690;9.022;2023-03-01T00:41:12;13.55;;;11.60;;
2622;SDS011;1321;48.690;9.022;2023-03-01T00:43:42;13.00;;;11.60;;
2622;SDS011;1321;48.690;9.022;2023-03-01T00:46:11;15.02;;;11.43;;
2622;SDS011;1321;48.690;9.022;2023-03-01T00:48:41;13.10;;;11.68;;
2622;SDS011;1321;48.690;9.022;2023-03-01T00:51:10;13.60;;;11.55;;
2622;SDS011;1321;48.690;9.022;2023-03-01T00:53:40;15.48;;;12.00;;
2622;SDS011;1321;48.690;9.022;2023-03-01T00:56:10;15.57;;;12.13;;
2622;SDS011;1321;48.690;9.022;2023-03-01T00:58:40;12.30;;;10.70;;
2622;SDS011;1321;48.690;9.022;2023-03-01T01:01:09;13.15;;;11.27;;
2622;SDS011;1321;48.690;9.022;2023-03-01T01:03:44;13.10;;;10.98;;
2622;SDS011;1321;48.690;9.022;2023-03-01T01:06:14;13.20;;;11.85;;
2622;SDS011;1321;48.690;9.022;2023-03-01T01:08:44;14.05;;;12.05;;
2622;SDS011;1321;48.690;9.022;2023-03-01T01:11:14;15.23;;;12.32;;
2622;SDS011;1321;48.690;9.022;2023-03-01T01:13:43;13.23;;;11.60;;
2622;SDS011;1321;48.690;9.022;2023-03-01T01:16:12;16.27;;;11.38;;
2622;SDS011;1321;48.690;9.022;2023-03-01T01:18:41;13.75;;;10.75;;
2622;SDS011;1321;48.690;9.022;2023-03-01T01:21:10;16.33;;;11.48;;
2622;SDS011;1321;48.690;9.022;2023-03-01T01:23:39;13.73;;;12.38;;
2622;SDS011;1321;48.690;9.022;2023-03-01T01:26:09;16.58;;;12.43;;
2622;SDS011;1321;48.690;9.022;2023-03-01T01:28:40;14.18;;;11.38;;
2622;SDS011;1321;48.690;9.022;2023-03-01T01:31:08;11.95;;;10.82;;
2622;SDS011;1321;48.690;9.022;2023-03-01T01:33:36;13.85;;;11.60;;
2622;SDS011;1321;48.690;9.022;2023-03-01T01:36:05;14.75;;;11.98;;
2622;SDS011;1321;48.690;9.022;2023-03-01T01:38:35;13.80;;;12.18;;
2622;SDS011;1321;48.690;9.022;2023-03-01T01:41:04;14.45;;;10.98;;
2622;SDS011;1321;48.690;9.022;2023-03-01T01:43:33;16.50;;;12.10;;
2622;SDS011;1321;48.690;9.022;2023-03-01T01:46:05;13.90;;;11.90;;
2622;SDS011;1321;48.690;9.022;2023-03-01T01:48:44;15.32;;;13.73;;
2622;SDS011;1321;48.690;9.022;2023-03-01T01:51:16;13.73;;;11.10;;
2622;SDS011;1321;48.690;9.022;2023-03-01T01:53:52;15.60;;;11.70;;
2622;SDS011;1321;48.690;9.022;2023-03-01T01:56:23;12.80;;;11.43;;
2622;SDS011;1321;48.690;9.022;2023-03-01T01:58:56;13.00;;;11.63;;
2622;SDS011;1321;48.690;9.022;2023-03-01T02:01:26;14.98;;;12.18;;
2622;SDS011;1321;48.690;9.022;2023-03-01T02:03:55;13.93;;;12.00;;
2622;SDS011;1321;48.690;9.022;2023-03-01T02:06:25;14.00;;;12.15;;
2622;SDS011;1321;48.690;9.022;2023-03-01T02:08:57;14.23;;;12.38;;
2622;SDS011;1321;48.690;9.022;2023-03-01T02:11:27;13.88;;;12.43;;
2622;SDS011;1321;48.690;9.022;2023-03-01T02:13:57;15.20;;;13.68;;
2622;SDS011;1321;48.690;9.022;2023-03-01T02:16:27;16.10;;;14.38;;
2622;SDS011;1321;48.690;9.022;2023-03-01T02:18:56;14.60;;;11.73;;
2622;SDS011;1321;48.690;9.022;2023-03-01T02:21:35;14.95;;;13.02;;
2622;SDS011;1321;48.690;9.022;2023-03-01T02:24:13;13.43;;;12.02;;
2622;SDS011;1321;48.690;9.022;2023-03-01T02:26:53;14.88;;;12.32;;
2622;SDS011;1321;48.690;9.022;2023-03-01T02:29:24;17.48;;;12.90;;
2622;SDS011;1321;48.690;9.022;2023-03-01T02:31:54;17.88;;;12.23;;
2622;SDS011;1321;48.690;9.022;2023-03-01T02:34:24;16.27;;;11.23;;
2622;SDS011;1321;48.690;9.022;2023-03-01T02:36:53;17.55;;;13.55;;
2622;SDS011;1321;48.690;9.022;2023-03-01T02:39:25;16.45;;;13.23;;
2622;SDS011;1321;48.690;9.022;2023-03-01T02:41:56;13.50;;;12.10;;
2622;SDS011;1321;48.690;9.022;2023-03-01T02:44:26;15.00;;;13.10;;
2622;SDS011;1321;48.690;9.022;2023-03-01T02:46:56;14.13;;;12.70;;
2622;SDS011;1321;48.690;9.022;2023-03-01T02:49:26;16.67;;;12.95;;
2622;SDS011;1321;48.690;9.022;2023-03-01T02:52:04;14.70;;;12.52;;
2622;SDS011;1321;48.690;9.022;2023-03-01T02:54:54;13.80;;;12.48;;
2622;SDS011;1321;48.690;9.022;2023-03-01T02:57:27;13.50;;;12.10;;
2622;SDS011;1321;48.690;9.022;2023-03-01T02:59:59;14.65;;;12.50;;
2622;SDS011;1321;48.690;9.022;2023-03-01T03:02:34;14.73;;;12.60;;
2622;SDS011;1321;48.690;9.022;2023-03-01T03:05:06;13.88;;;12.38;;
2622;SDS011;1321;48.690;9.022;2023-03-01T03:07:37;14.38;;;12.88;;
2622;SDS011;1321;48.690;9.022;2023-03-01T03:10:08;16.13;;;13.57;;
2622;SDS011;1321;48.690;9.022;2023-03-01T03:12:38;15.27;;;12.43;;
2622;SDS011;1321;48.690;9.022;2023-03-01T03:15:09;16.52;;;12.75;;
2622;SDS011;1321;48.690;9.022;2023-03-01T03:17:39;16.00;;;12.77;;
2622;SDS011;1321;48.690;9.022;2023-03-01T03:20:12;14.70;;;13.20;;
2622;SDS011;1321;48.690;9.022;2023-03-01T03:22:45;17.48;;;12.07;;
2622;SDS011;1321;48.690;9.022;2023-03-01T03:25:14;17.05;;;13.38;;
2622;SDS011;1321;48.690;9.022;2023-03-01T03:27:44;14.73;;;12.00;;
2622;SDS011;1321;48.690;9.022;2023-03-01T03:30:15;16.80;;;13.95;;
2622;SDS011;1321;48.690;9.022;2023-03-01T03:32:46;15.38;;;13.10;;
2622;SDS011;1321;48.690;9.022;2023-03-01T03:35:19;16.35;;;14.45;;
2622;SDS011;1321;48.690;9.022;2023-03-01T03:37:48;14.90;;;13.20;;
2622;SDS011;1321;48.690;9.022;2023-03-01T03:40:33;15.27;;;13.20;;
2622;SDS011;1321;48.690;9.022;2023-03-01T03:43:04;19.35;;;13.45;;
2622;SDS011;1321;48.690;9.022;2023-03-01T03:45:35;15.80;;;14.15;;
2622;SDS011;1321;48.690;9.022;2023-03-01T03:48:04;16.30;;;13.45;;
2622;SDS011;1321;48.690;9.022;2023-03-01T03:50:34;16.17;;;13.77;;
2622;SDS011;1321;48.690;9.022;2023-03-01T03:53:03;16.63;;;13.90;;
2622;SDS011;1321;48.690;9.022;2023-03-01T03:55:33;14.13;;;12.63;;
2622;SDS011;1321;48.690;9.022;2023-03-01T03:58:02;16.73;;;13.55;;
2622;SDS011;1321;48.690;9.022;2023-03-01T04:00:34;14.43;;;12.60;;
2622;SDS011;1321;48.690;9.022;2023-03-01T04:03:04;15.48;;;13.27;;
2622;SDS011;1321;48.690;9.022;2023-03-01T04:05:33;15.57;;;12.60;;
2622;SDS011;1321;48.690;9.022;2023-03-01T04:08:02;13.68;;;11.90;;
2622;SDS011;1321;48.690;9.022;2023-03-01T04:10:34;15.93;;;12.77;;
2622;SDS011;1321;48.690;9.022;2023-03-01T04:13:04;14.40;;;12.38;;
2622;SDS011;1321;48.690;9.022;2023-03-01T04:15:34;14.95;;;12.95;;
2622;SDS011;1321;48.690;9.022;2023-03-01T04:18:03;17.52;;;14.45;;
2622;SDS011;1321;48.690;9.022;2023-03-01T04:20:32;19.60;;;14.05;;
2622;SDS011;1321;48.690;9.022;2023-03-01T04:23:03;15.15;;;13.20;;
2622;SDS011;1321;48.690;9.022;2023-03-01T04:25:44;18.13;;;14.82;;
2622;SDS011;1321;48.690;9.022;2023-03-01T04:28:15;22.88;;;14.10;;
2622;SDS011;1321;48.690;9.022;2023-03-01T04:30:45;13.57;;;12.15;;
2622;SDS011;1321;48.690;9.022;2023-03-01T04:33:13;15.93;;;13.23;;
2622;SDS011;1321;48.690;9.022;2023-03-01T04:35:41;14.48;;;12.32;;
2622;SDS011;1321;48.690;9.022;2023-03-01T04:38:09;17.02;;;13.48;;
2622;SDS011;1321;48.690;9.022;2023-03-01T04:40:38;16.55;;;12.77;;
2622;SDS011;1321;48.690;9.022;2023-03-01T04:43:08;15.55;;;13.27;;
2622;SDS011;1321;48.690;9.022;2023-03-01T04:45:37;16.52;;;14.60;;
2622;SDS011;1321;48.690;9.022;2023-03-01T04:48:07;16.52;;;13.57;;
2622;SDS011;1321;48.690;9.022;2023-03-01T04:50:35;19.52;;;14.32;;
2622;SDS011;1321;48.690;9.022;2023-03-01T04:53:03;19.52;;;14.05;;
2622;SDS011;1321;48.690;9.022;2023-03-01T04:55:31;18.70;;;13.55;;
2622;SDS011;1321;48.690;9.022;2023-03-01T04:58:01;17.98;;;14.85;;
2622;SDS011;1321;48.690;9.022;2023-03-01T05:00:29;18.42;;;14.23;;
2622;SDS011;1321;48.690;9.022;2023-03-01T05:02:59;15.82;;;14.02;;
2622;SDS011;1321;48.690;9.022;2023-03-01T05:05:30;20.17;;;14.32;;
2622;SDS011;1321;48.690;9.022;2023-03-01T05:08:02;18.48;;;13.90;;
2622;SDS011;1321;48.690;9.022;2023-03-01T05:10:32;17.88;;;13.55;;
2622;SDS011;1321;48.690;9.022;2023-03-01T05:13:02;17.67;;;13.30;;
2622;SDS011;1321;48.690;9.022;2023-03-01T05:15:31;18.02;;;13.70;;
2622;SDS011;1321;48.690;9.022;2023-03-01T05:17:59;16.40;;;14.52;;
2622;SDS011;1321;48.690;9.022;2023-03-01T05:20:28;18.20;;;14.05;;
2622;SDS011;1321;48.690;9.022;2023-03-01T05:22:59;15.75;;;13.15;;
2622;SDS011;1321;48.690;9.022;2023-03-01T05:25:32;18.70;;;14.38;;
2622;SDS011;1321;48.690;9.022;2023-03-01T05:28:07;19.02;;;14.88;;
2622;SDS011;1321;48.690;9.022;2023-03-01T05:30:38;18.98;;;15.25;;
2622;SDS011;1321;48.690;9.022;2023-03-01T05:33:07;18.27;;;16.15;;
2622;SDS011;1321;48.690;9.022;2023-03-01T05:35:41;17.08;;;13.98;;
2622;SDS011;1321;48.690;9.022;2023-03-01T05:38:10;14.15;;;12.68;;
2622;SDS011;1321;48.690;9.022;2023-03-01T05:40:40;17.08;;;14.82;;
2622;SDS011;1321;48.690;9.022;2023-03-01T05:43:10;20.33;;;15.45;;
2622;SDS011;1321;48.690;9.022;2023-03-01T05:45:39;17.27;;;14.63;;
2622;SDS011;1321;48.690;9.022;2023-03-01T05:48:09;18.70;;;16.70;;
2622;SDS011;1321;48.690;9.022;2023-03-01T05:50:39;18.75;;;14.07;;
2622;SDS011;1321;48.690;9.022;2023-03-01T05:53:11;16.77;;;13.85;;
2622;SDS011;1321;48.690;9.022;2023-03-01T05:55:41;18.48;;;14.05;;
2622;SDS011;1321;48.690;9.022;2023-03-01T05:58:11;16.60;;;14.20;;
2622;SDS011;1321;48.690;9.022;2023-03-01T06:00:41;19.13;;;14.27;;
2622;SDS011;1321;48.690;9.022;2023-03-01T06:03:10;17.13;;;14.30;;
2622;SDS011;1321;48.690;9.022;2023-03-01T06:05:39;20.73;;;15.15;;
2622;SDS011;1321;48.690;9.022;2023-03-01T06:08:10;20.20;;;14.10;;
2622;SDS011;1321;48.690;9.022;2023-03-01T06:10:39;18.00;;;14.82;;
2622;SDS011;1321;48.690;9.022;2023-03-01T06:13:07;18.35;;;15.50;;
2622;SDS011;1321;48.690;9.022;2023-03-01T06:15:36;18.02;;;14.07;;
2622;SDS011;1321;48.690;9.022;2023-03-01T06:18:04;16.58;;;13.88;;
2622;SDS011;1321;48.690;9.022;2023-03-01T06:20:32;21.10;;;17.60;;
2622;SDS011;1321;48.690;9.022;2023-03-01T06:23:01;18.92;;;16.75;;
2622;SDS011;1321;48.690;9.022;2023-03-01T06:25:30;19.10;;;14.32;;
2622;SDS011;1321;48.690;9.022;2023-03-01T06:27:58;19.27;;;15.20;;
2622;SDS011;1321;48.690;9.022;2023-03-01T06:30:26;16.77;;;15.00;;
2622;SDS011;1321;48.690;9.022;2023-03-01T06:32:55;24.17;;;16.25;;
2622;SDS011;1321;48.690;9.022;2023-03-01T06:35:27;16.13;;;13.55;;
2622;SDS011;1321;48.690;9.022;2023-03-01T06:37:57;16.80;;;14.63;;
2622;SDS011;1321;48.690;9.022;2023-03-01T06:40:28;21.77;;;14.77;;
2622;SDS011;1321;48.690;9.022;2023-03-01T06:42:57;17.17;;;14.73;;
2622;SDS011;1321;48.690;9.022;2023-03-01T06:45:27;18.67;;;15.60;;
2622;SDS011;1321;48.690;9.022;2023-03-01T06:48:01;18.83;;;14.52;;
2622;SDS011;1321;48.690;9.022;2023-03-01T06:50:30;18.00;;;14.13;;
2622;SDS011;1321;48.690;9.022;2023-03-01T06:52:59;24.85;;;16.85;;
2622;SDS011;1321;48.690;9.022;2023-03-01T06:55:29;20.58;;;16.73;;
2622;SDS011;1321;48.690;9.022;2023-03-01T06:57:57;23.85;;;16.23;;
2622;SDS011;1321;48.690;9.022;2023-03-01T07:00:26;21.20;;;15.40;;
2622;SDS011;1321;48.690;9.022;2023-03-01T07:02:58;21.23;;;16.25;;
2622;SDS011;1321;48.690;9.022;2023-03-01T07:05:28;17.50;;;14.70;;
2622;SDS011;1321;48.690;9.022;2023-03-01T07:07:57;20.88;;;15.20;;
2622;SDS011;1321;48.690;9.022;2023-03-01T07:10:25;17.95;;;14.80;;
2622;SDS011;1321;48.690;9.022;2023-03-01T07:12:55;17.23;;;14.52;;
2622;SDS011;1321;48.690;9.022;2023-03-01T07:15:24;18.40;;;15.13;;
2622;SDS011;1321;48.690;9.022;2023-03-01T07:17:53;16.52;;;14.80;;
2622;SDS011;1321;48.690;9.022;2023-03-01T07:20:22;17.85;;;15.38;;
2622;SDS011;1321;48.690;9.022;2023-03-01T07:22:52;17.20;;;14.52;;
2622;SDS011;1321;48.690;9.022;2023-03-01T07:25:20;16.63;;;14.93;;
2622;SDS011;1321;48.690;9.022;2023-03-01T07:27:49;16.58;;;14.82;;
2622;SDS011;1321;48.690;9.022;2023-03-01T07:30:20;19.30;;;14.77;;
2622;SDS011;1321;48.690;9.022;2023-03-01T07:32:49;18.85;;;14.98;;
2622;SDS011;1321;48.690;9.022;2023-03-01T07:35:20;26.20;;;15.45;;
2622;SDS011;1321;48.690;9.022;2023-03-01T07:37:49;18.67;;;14.38;;
2622;SDS011;1321;48.690;9.022;2023-03-01T07:40:17;19.33;;;15.55;;
2622;SDS011;1321;48.690;9.022;2023-03-01T07:42:45;18.60;;;15.60;;
2622;SDS011;1321;48.690;9.022;2023-03-01T07:45:13;17.38;;;14.65;;
2622;SDS011;1321;48.690;9.022;2023-03-01T07:47:43;22.15;;;15.65;;
2622;SDS011;1321;48.690;9.022;2023-03-01T07:50:11;17.08;;;15.23;;
2622;SDS011;1321;48.690;9.022;2023-03-01T07:52:39;19.40;;;16.40;;
2622;SDS011;1321;48.690;9.022;2023-03-01T07:55:08;17.65;;;15.70;;
2622;SDS011;1321;48.690;9.022;2023-03-01T07:57:36;15.73;;;14.02;;
2622;SDS011;1321;48.690;9.022;2023-03-01T08:00:05;17.48;;;13.90;;
2622;SDS011;1321;48.690;9.022;2023-03-01T08:02:34;17.80;;;16.00;;
2622;SDS011;1321;48.690;9.022;2023-03-01T08:05:04;17.95;;;14.27;;
2622;SDS011;1321;48.690;9.022;2023-03-01T08:07:33;19.35;;;15.73;;
2622;SDS011;1321;48.690;9.022;2023-03-01T08:10:01;17.48;;;15.20;;
2622;SDS011;1321;48.690;9.022;2023-03-01T08:12:29;15.80;;;13.45;;
2622;SDS011;1321;48.690;9.022;2023-03-01T08:14:57;23.50;;;15.07;;
2622;SDS011;1321;48.690;9.022;2023-03-01T08:17:25;16.92;;;14.10;;
2622;SDS011;1321;48.690;9.022;2023-03-01T08:19:53;18.65;;;15.35;;
2622;SDS011;1321;48.690;9.022;2023-03-01T08:22:23;16.80;;;14.40;;
2622;SDS011;1321;48.690;9.022;2023-03-01T08:24:51;16.13;;;14.30;;
2622;SDS011;1321;48.690;9.022;2023-03-01T08:27:22;20.87;;;15.70;;
2622;SDS011;1321;48.690;9.022;2023-03-01T08:29:51;17.05;;;15.00;;
2622;SDS011;1321;48.690;9.022;2023-03-01T08:32:19;16.80;;;15.00;;
2622;SDS011;1321;48.690;9.022;2023-03-01T08:34:48;18.07;;;15.20;;
2622;SDS011;1321;48.690;9.022;2023-03-01T08:37:16;17.03;;;14.10;;
2622;SDS011;1321;48.690;9.022;2023-03-01T08:39:45;18.77;;;15.00;;
2622;SDS011;1321;48.690;9.022;2023-03-01T08:42:14;17.17;;;15.40;;
2622;SDS011;1321;48.690;9.022;2023-03-01T08:44:42;17.80;;;15.90;;
2622;SDS011;1321;48.690;9.022;2023-03-01T08:47:12;18.03;;;16.33;;
2622;SDS011;1321;48.690;9.022;2023-03-01T08:49:41;18.60;;;14.60;;
2622;SDS011;1321;48.690;9.022;2023-03-01T08:52:09;16.47;;;14.73;;
2622;SDS011;1321;48.690;9.022;2023-03-01T08:54:37;17.00;;;15.30;;
2622;SDS011;1321;48.690;9.022;2023-03-01T08:57:07;19.23;;;16.00;;
2622;SDS011;1321;48.690;9.022;2023-03-01T08:59:35;17.83;;;15.53;;
2622;SDS011;1321;48.690;9.022;2023-03-01T09:02:04;17.60;;;14.73;;
2622;SDS011;1321;48.690;9.022;2023-03-01T09:04:33;22.10;;;16.60;;
2622;SDS011;1321;48.690;9.022;2023-03-01T09:07:01;20.83;;;17.30;;
2622;SDS011;1321;48.690;9.022;2023-03-01T09:09:29;16.60;;;14.90;;
2622;SDS011;1321;48.690;9.022;2023-03-01T09:11:57;18.50;;;16.50;;
2622;SDS011;1321;48.690;9.022;2023-03-01T09:14:27;18.70;;;16.70;;
2622;SDS011;1321;48.690;9.022;2023-03-01T09:16:55;17.97;;;15.60;;
2622;SDS011;1321;48.690;9.022;2023-03-01T09:19:23;17.90;;;16.03;;
2622;SDS011;1321;48.690;9.022;2023-03-01T09:21:52;17.60;;;15.70;;
2622;SDS011;1321;48.690;9.022;2023-03-01T09:24:22;18.50;;;16.70;;
2622;SDS011;1321;48.690;9.022;2023-03-01T09:26:55;19.33;;;17.37;;
2622;SDS011;1321;48.690;9.022;2023-03-01T09:29:23;17.30;;;15.50;;
2622;SDS011;1321;48.690;9.022;2023-03-01T09:31:53;20.10;;;16.77;;
2622;SDS011;1321;48.690;9.022;2023-03-01T09:34:22;24.00;;;16.63;;
2622;SDS011;1321;48.690;9.022;2023-03-01T09:36:50;19.20;;;17.20;;
2622;SDS011;1321;48.690;9.022;2023-03-01T09:39:19;18.47;;;16.57;;
2622;SDS011;1321;48.690;9.022;2023-03-01T09:41:49;19.40;;;17.50;;
2622;SDS011;1321;48.690;9.022;2023-03-01T09:44:32;19.17;;;17.10;;
2622;SDS011;1321;48.690;9.022;2023-03-01T09:47:08;19.27;;;17.17;;
2622;SDS011;1321;48.690;9.022;2023-03-01T09:49:39;18.30;;;16.40;;
2622;SDS011;1321;48.690;9.022;2023-03-01T09:52:19;18.07;;;16.23;;
2622;SDS011;1321;48.690;9.022;2023-03-01T09:54:54;17.47;;;15.67;;
2622;SDS011;1321;48.690;9.022;2023-03-01T09:57:27;17.80;;;16.00;;
2622;SDS011;1321;48.690;9.022;2023-03-01T10:00:09;20.30;;;18.40;;
2622;SDS011;1321;48.690;9.022;2023-03-01T10:02:49;18.20;;;16.40;;
2622;SDS011;1321;48.690;9.022;2023-03-01T10:05:31;19.40;;;17.43;;
2622;SDS011;1321;48.690;9.022;2023-03-01T10:08:19;16.57;;;14.97;;
2622;SDS011;1321;48.690;9.022;2023-03-01T10:10:55;16.83;;;15.23;;
2622;SDS011;1321;48.690;9.022;2023-03-01T10:13:25;20.23;;;16.50;;
2622;SDS011;1321;48.690;9.022;2023-03-01T10:16:00;19.57;;;17.60;;
2622;SDS011;1321;48.690;9.022;2023-03-01T10:18:34;18.97;;;17.10;;
2622;SDS011;1321;48.690;9.022;2023-03-01T10:21:08;17.23;;;15.47;;
2622;SDS011;1321;48.690;9.022;2023-03-01T10:23:42;19.57;;;16.23;;
2622;SDS011;1321;48.690;9.022;2023-03-01T10:29:06;18.80;;;16.83;;
2622;SDS011;1321;48.690;9.022;2023-03-01T10:31:39;17.77;;;16.03;;
2622;SDS011;1321;48.690;9.022;2023-03-01T10:34:12;18.40;;;16.77;;
2622;SDS011;1321;48.690;9.022;2023-03-01T10:36:43;18.43;;;16.63;;
2622;SDS011;1321;48.690;9.022;2023-03-01T10:39:15;19.57;;;17.83;;
2622;SDS011;1321;48.690;9.022;2023-03-01T10:41:52;19.20;;;17.50;;
2622;SDS011;1321;48.690;9.022;2023-03-01T10:44:41;19.70;;;18.10;;
2622;SDS011;1321;48.690;9.022;2023-03-01T10:47:18;18.83;;;17.20;;
2622;SDS011;1321;48.690;9.022;2023-03-01T10:49:53;19.00;;;17.30;;
2622;SDS011;1321;48.690;9.022;2023-03-01T10:52:28;18.37;;;16.70;;
2622;SDS011;1321;48.690;9.022;2023-03-01T10:54:59;19.20;;;17.50;;
2622;SDS011;1321;48.690;9.022;2023-03-01T10:57:33;19.13;;;17.30;;
2622;SDS011;1321;48.690;9.022;2023-03-01T11:00:14;19.40;;;17.70;;
2622;SDS011;1321;48.690;9.022;2023-03-01T11:02:47;18.17;;;16.63;;
2622;SDS011;1321;48.690;9.022;2023-03-01T11:05:19;19.63;;;17.60;;
2622;SDS011;1321;48.690;9.022;2023-03-01T11:07:51;18.00;;;16.30;;
2622;SDS011;1321;48.690;9.022;2023-03-01T11:10:21;17.53;;;16.00;;
2622;SDS011;1321;48.690;9.022;2023-03-01T11:12:51;19.77;;;17.97;;
2622;SDS011;1321;48.690;9.022;2023-03-01T11:15:24;19.50;;;17.60;;
2622;SDS011;1321;48.690;9.022;2023-03-01T11:17:55;19.83;;;18.00;;
2622;SDS011;1321;48.690;9.022;2023-03-01T11:20:40;18.50;;;16.80;;
2622;SDS011;1321;48.690;9.022;2023-03-01T11:23:09;18.13;;;16.60;;
2622;SDS011;1321;48.690;9.022;2023-03-01T11:25:41;17.43;;;16.00;;
2622;SDS011;1321;48.690;9.022;2023-03-01T11:28:13;17.80;;;16.40;;
2622;SDS011;1321;48.690;9.022;2023-03-01T11:30:45;18.10;;;16.60;;
2622;SDS011;1321;48.690;9.022;2023-03-01T11:33:34;16.80;;;15.30;;
2622;SDS011;1321;48.690;9.022;2023-03-01T11:36:11;18.77;;;17.37;;
2622;SDS011;1321;48.690;9.022;2023-03-01T11:38:44;18.20;;;16.50;;
2622;SDS011;1321;48.690;9.022;2023-03-01T11:41:13;19.33;;;17.20;;
2622;SDS011;1321;48.690;9.022;2023-03-01T11:43:47;19.33;;;17.43;;
2622;SDS011;1321;48.690;9.022;2023-03-01T11:46:32;18.10;;;16.37;;
2622;SDS011;1321;48.690;9.022;2023-03-01T11:49:24;16.93;;;15.07;;
2622;SDS011;1321;48.690;9.022;2023-03-01T11:52:18;18.03;;;16.13;;
2622;SDS011;1321;48.690;9.022;2023-03-01T11:54:56;17.33;;;15.50;;
2622;SDS011;1321;48.690;9.022;2023-03-01T11:57:41;20.27;;;16.93;;
2622;SDS011;1321;48.690;9.022;2023-03-01T12:00:23;22.53;;;16.40;;
2622;SDS011;1321;48.690;9.022;2023-03-01T12:03:11;17.70;;;15.03;;
2622;SDS011;1321;48.690;9.022;2023-03-01T12:05:54;17.00;;;15.40;;
2622;SDS011;1321;48.690;9.022;2023-03-01T12:08:59;16.37;;;14.67;;
2622;SDS011;1321;48.690;9.022;2023-03-01T12:11:45;17.20;;;15.60;;
2622;SDS011;1321;48.690;9.022;2023-03-01T12:14:36;15.73;;;14.33;;
2622;SDS011;1321;48.690;9.022;2023-03-01T12:17:21;18.67;;;15.50;;
2622;SDS011;1321;48.690;9.022;2023-03-01T12:20:15;16.60;;;14.90;;
2622;SDS011;1321;48.690;9.022;2023-03-01T12:22:55;15.63;;;14.10;;
2622;SDS011;1321;48.690;9.022;2023-03-01T12:25:48;16.10;;;14.50;;
2622;SDS011;1321;48.690;9.022;2023-03-01T12:28:25;18.30;;;15.33;;
2622;SDS011;1321;48.690;9.022;2023-03-01T12:31:08;15.80;;;14.13;;
2622;SDS011;1321;48.690;9.022;2023-03-01T12:33:54;18.40;;;16.60;;
2622;SDS011;1321;48.690;9.022;2023-03-01T12:36:38;15.53;;;13.97;;
2622;SDS011;1321;48.690;9.022;2023-03-01T12:39:32;16.20;;;14.53;;
2622;SDS011;1321;48.690;9.022;2023-03-01T12:42:12;17.07;;;14.63;;
2622;SDS011;1321;48.690;9.022;2023-03-01T12:44:55;19.53;;;15.50;;
2622;SDS011;1321;48.690;9.022;2023-03-01T12:47:40;16.57;;;15.00;;
2622;SDS011;1321;48.690;9.022;2023-03-01T12:50:27;16.17;;;14.57;;
2622;SDS011;1321;48.690;9.022;2023-03-01T12:53:04;23.40;;;16.03;;
2622;SDS011;1321;48.690;9.022;2023-03-01T12:55:33;17.23;;;15.63;;
2622;SDS011;1321;48.690;9.022;2023-03-01T12:58:07;16.40;;;14.80;;
2622;SDS011;1321;48.690;9.022;2023-03-01T13:00:51;16.63;;;14.10;;
2622;SDS011;1321;48.690;9.022;2023-03-01T13:03:29;16.97;;;15.20;;
2622;SDS011;1321;48.690;9.022;2023-03-01T13:06:07;15.43;;;13.83;;
2622;SDS011;1321;48.690;9.022;2023-03-01T13:08:41;17.30;;;13.67;;
2622;SDS011;1321;48.690;9.022;2023-03-01T13:11:16;15.47;;;13.93;;
2622;SDS011;1321;48.690;9.022;2023-03-01T13:13:48;15.73;;;13.57;;
2622;SDS011;1321;48.690;9.022;2023-03-01T13:19:10;14.97;;;13.43;;
2622;SDS011;1321;48.690;9.022;2023-03-01T13:21:42;14.83;;;13.30;;
2622;SDS011;1321;48.690;9.022;2023-03-01T13:24:24;17.10;;;12.87;;
2622;SDS011;1321;48.690;9.022;2023-03-01T13:27:09;14.73;;;12.93;;
2622;SDS011;1321;48.690;9.022;2023-03-01T13:29:45;13.50;;;12.30;;
2622;SDS011;1321;48.690;9.022;2023-03-01T13:32:21;13.80;;;12.47;;
2622;SDS011;1321;48.690;9.022;2023-03-01T13:35:06;13.77;;;12.37;;
2622;SDS011;1321;48.690;9.022;2023-03-01T13:41:07;14.90;;;13.40;;
2622;SDS011;1321;48.690;9.022;2023-03-01T13:43:36;13.37;;;12.20;;
2622;SDS011;1321;48.690;9.022;2023-03-01T13:46:11;13.40;;;12.17;;
2622;SDS011;1321;48.690;9.022;2023-03-01T13:48:44;15.43;;;13.93;;
2622;SDS011;1321;48.690;9.022;2023-03-01T13:51:20;12.73;;;11.43;;
2622;SDS011;1321;48.690;9.022;2023-03-01T13:53:51;15.63;;;13.30;;
2622;SDS011;1321;48.690;9.022;2023-03-01T13:56:22;13.30;;;12.10;;
2622;SDS011;1321;48.690;9.022;2023-03-01T13:58:53;14.37;;;12.93;;
2622;SDS011;1321;48.690;9.022;2023-03-01T14:01:30;15.27;;;13.37;;
2622;SDS011;1321;48.690;9.022;2023-03-01T14:04:01;15.23;;;12.73;;
2622;SDS011;1321;48.690;9.022;2023-03-01T14:06:33;13.03;;;11.57;;
2622;SDS011;1321;48.690;9.022;2023-03-01T14:09:03;15.43;;;13.30;;
2622;SDS011;1321;48.690;9.022;2023-03-01T14:11:47;15.90;;;14.23;;
2622;SDS011;1321;48.690;9.022;2023-03-01T14:14:40;15.73;;;14.10;;
2622;SDS011;1321;48.690;9.022;2023-03-01T14:20:11;14.70;;;13.27;;
2622;SDS011;1321;48.690;9.022;2023-03-01T14:22:43;15.97;;;13.70;;
2622;SDS011;1321;48.690;9.022;2023-03-01T14:25:17;15.57;;;14.00;;
2622;SDS011;1321;48.690;9.022;2023-03-01T14:27:54;19.97;;;15.20;;
2622;SDS011;1321;48.690;9.022;2023-03-01T14:30:26;15.30;;;13.80;;
2622;SDS011;1321;48.690;9.022;2023-03-01T14:32:59;18.00;;;16.07;;
2622;SDS011;1321;48.690;9.022;2023-03-01T14:35:30;20.63;;;16.00;;
2622;SDS011;1321;48.690;9.022;2023-03-01T14:38:00;15.93;;;14.23;;
2622;SDS011;1321;48.690;9.022;2023-03-01T14:40:29;17.27;;;14.63;;
2622;SDS011;1321;48.690;9.022;2023-03-01T14:43:00;17.33;;;15.70;;
2622;SDS011;1321;48.690;9.022;2023-03-01T14:45:29;18.60;;;14.97;;
2622;SDS011;1321;48.690;9.022;2023-03-01T14:48:00;17.50;;;15.60;;
2622;SDS011;1321;48.690;9.022;2023-03-01T14:50:30;16.90;;;15.07;;
2622;SDS011;1321;48.690;9.022;2023-03-01T14:53:00;17.27;;;15.47;;
2622;SDS011;1321;48.690;9.022;2023-03-01T14:55:31;16.20;;;14.57;;
2622;SDS011;1321;48.690;9.022;2023-03-01T14:58:03;16.40;;;14.77;;
2622;SDS011;1321;48.690;9.022;2023-03-01T15:00:32;20.53;;;17.20;;
2622;SDS011;1321;48.690;9.022;2023-03-01T15:03:05;18.67;;;16.77;;
2622;SDS011;1321;48.690;9.022;2023-03-01T15:05:40;18.23;;;16.40;;
2622;SDS011;1321;48.690;9.022;2023-03-01T15:08:12;18.93;;;16.33;;
2622;SDS011;1321;48.690;9.022;2023-03-01T15:10:55;19.30;;;16.67;;
2622;SDS011;1321;48.690;9.022;2023-03-01T15:13:28;18.77;;;15.23;;
2622;SDS011;1321;48.690;9.022;2023-03-01T15:16:02;17.53;;;15.00;;
2622;SDS011;1321;48.690;9.022;2023-03-01T15:18:35;22.23;;;15.50;;
2622;SDS011;1321;48.690;9.022;2023-03-01T15:21:07;16.30;;;14.60;;
2622;SDS011;1321;48.690;9.022;2023-03-01T15:23:37;17.97;;;14.10;;
2622;SDS011;1321;48.690;9.022;2023-03-01T15:26:17;19.30;;;15.30;;
2622;SDS011;1321;48.690;9.022;2023-03-01T15:28:52;19.00;;;16.90;;
2622;SDS011;1321;48.690;9.022;2023-03-01T15:31:25;20.10;;;15.70;;